Time;durP1;ratioP1;P1;durP2;ratioP2;P2;SDS_P1;SDS_P2;PMS_P1;PMS_P2;Temp;Humidity;BMP_temperature;BMP_pressure;BME280_temperature;BME280_humidity;BME280_pressure;Samples;Min_cycle;Max_cycle;Signal;HPM_P1;HPM_P2
2023/06/11 00:02:15;;;;;;;11.93;10.83;;;14.30;99.90;;;;;;5093532;28;20251;-79
2023/06/11 00:04:45;;;;;;;11.40;10.30;;;14.40;99.90;;;;;;5093560;28;20210;-79
2023/06/11 00:07:14;;;;;;;12.00;10.90;;;14.40;99.90;;;;;;5093095;28;20630;-78
2023/06/11 00:09:42;;;;;;;12.27;11.03;;;14.40;99.90;;;;;;5093829;28;20633;-79
2023/06/11 00:12:10;;;;;;;12.50;11.30;;;14.40;99.90;;;;;;5104193;28;20202;-79
2023/06/11 00:14:38;;;;;;;11.73;10.63;;;14.40;99.90;;;;;;5114087;28;20206;-78
2023/06/11 00:17:07;;;;;;;12.50;11.30;;;14.40;99.90;;;;;;5094756;28;20641;-77
2023/06/11 00:19:35;;;;;;;12.27;11.07;;;14.40;99.90;;;;;;5096909;28;20239;-78
2023/06/11 00:22:06;;;;;;;11.90;10.70;;;14.40;99.90;;;;;;5101770;28;20203;-79
2023/06/11 00:24:34;;;;;;;12.40;11.30;;;14.30;99.90;;;;;;5107196;28;20223;-79
2023/06/11 00:27:03;;;;;;;12.00;10.83;;;14.30;99.90;;;;;;5104152;28;20738;-77
2023/06/11 00:29:31;;;;;;;13.23;11.83;;;14.30;99.90;;;;;;5100620;28;20266;-78
2023/06/11 00:31:59;;;;;;;12.47;11.17;;;14.20;99.90;;;;;;5098447;28;20232;-78
2023/06/11 00:34:27;;;;;;;13.97;10.90;;;14.20;99.90;;;;;;5094001;28;20238;-76
2023/06/11 00:36:55;;;;;;;12.50;11.20;;;14.20;99.90;;;;;;5093203;28;20232;-79
2023/06/11 00:39:25;;;;;;;12.83;11.63;;;14.20;99.90;;;;;;5092806;28;20229;-78
2023/06/11 00:41:53;;;;;;;12.80;11.63;;;14.20;99.90;;;;;;5091790;28;20289;-78
2023/06/11 00:44:22;;;;;;;12.77;11.57;;;14.10;99.90;;;;;;5092292;28;20256;-78
2023/06/11 00:46:53;;;;;;;12.23;11.03;;;14.10;99.90;;;;;;5092949;28;20596;-79
2023/06/11 00:49:23;;;;;;;14.20;12.73;;;14.10;99.90;;;;;;5092225;28;20260;-79
2023/06/11 00:51:51;;;;;;;14.00;12.60;;;14.10;99.90;;;;;;5092381;28;20576;-78
2023/06/11 00:54:19;;;;;;;13.37;12.07;;;14.00;99.90;;;;;;5092141;28;20240;-77
2023/06/11 00:56:51;;;;;;;13.13;12.00;;;14.00;99.90;;;;;;5091925;28;20250;-78
2023/06/11 00:59:19;;;;;;;13.00;11.70;;;14.00;99.90;;;;;;5092033;28;20569;-77
2023/06/11 01:01:57;;;;;;;12.63;11.43;;;14.00;99.90;;;;;;5092263;28;20641;-77
2023/06/11 01:04:29;;;;;;;14.73;13.03;;;14.00;99.90;;;;;;5092225;28;20608;-79
2023/06/11 01:07:01;;;;;;;14.23;12.77;;;13.90;99.90;;;;;;5092261;28;20607;-79
2023/06/11 01:09:31;;;;;;;13.60;12.40;;;14.00;99.90;;;;;;5091493;28;20207;-79
2023/06/11 01:12:02;;;;;;;14.20;12.90;;;14.00;99.90;;;;;;5111809;28;20562;-79
2023/06/11 01:14:32;;;;;;;14.03;12.70;;;14.00;99.90;;;;;;5106677;28;20203;-79
2023/06/11 01:17:04;;;;;;;14.27;12.93;;;14.00;99.90;;;;;;5091870;28;20214;-78
2023/06/11 01:19:46;;;;;;;14.10;12.80;;;14.00;99.90;;;;;;5098887;28;20295;-77
2023/06/11 01:22:21;;;;;;;13.27;11.97;;;14.00;99.90;;;;;;5098277;28;20636;-78
2023/06/11 01:25:03;;;;;;;13.30;12.07;;;14.00;99.90;;;;;;5098863;28;20209;-79
2023/06/11 01:27:43;;;;;;;14.50;12.30;;;13.90;99.90;;;;;;5098782;28;20255;-77
2023/06/11 01:30:17;;;;;;;13.20;11.93;;;13.90;99.90;;;;;;5098894;28;20198;-79
2023/06/11 01:32:47;;;;;;;13.60;12.30;;;13.90;99.90;;;;;;5097504;28;20217;-77
2023/06/11 01:35:16;;;;;;;14.53;13.13;;;13.80;99.90;;;;;;5098470;28;20206;-77
2023/06/11 01:37:45;;;;;;;14.27;12.83;;;13.80;99.90;;;;;;5098331;28;20267;-80
2023/06/11 01:40:14;;;;;;;13.50;12.10;;;13.80;99.90;;;;;;5098433;28;20207;-77
2023/06/11 01:42:42;;;;;;;13.73;12.43;;;13.80;99.90;;;;;;5107786;28;20210;-78
2023/06/11 01:45:11;;;;;;;13.67;12.40;;;13.80;99.90;;;;;;5118840;27;20213;-79
2023/06/11 01:47:41;;;;;;;14.40;13.00;;;13.70;99.90;;;;;;5118907;28;20202;-77
2023/06/11 01:50:09;;;;;;;14.30;12.87;;;13.70;99.90;;;;;;5119492;27;20575;-78
2023/06/11 01:52:38;;;;;;;15.50;13.90;;;13.70;99.90;;;;;;5107722;27;20653;-79
2023/06/11 01:55:07;;;;;;;15.00;13.67;;;13.70;99.90;;;;;;5098125;28;20256;-78
2023/06/11 01:57:36;;;;;;;15.87;14.33;;;13.70;99.90;;;;;;5098245;28;20260;-77
2023/06/11 02:00:06;;;;;;;16.03;14.53;;;13.70;99.90;;;;;;5098487;28;20721;-78
2023/06/11 02:02:34;;;;;;;14.87;13.47;;;13.70;99.90;;;;;;5098401;28;20206;-79
2023/06/11 02:05:04;;;;;;;15.73;14.23;;;13.70;99.90;;;;;;5098428;28;20267;-78
2023/06/11 02:07:32;;;;;;;15.37;13.90;;;13.70;99.90;;;;;;5098131;28;20665;-79
2023/06/11 02:10:00;;;;;;;15.80;14.27;;;13.70;99.90;;;;;;5112694;28;20241;-79
2023/06/11 02:12:28;;;;;;;15.53;14.07;;;13.70;99.90;;;;;;5118596;27;20210;-79
2023/06/11 02:14:56;;;;;;;15.60;13.93;;;13.70;99.90;;;;;;5118344;27;20202;-79
2023/06/11 02:17:24;;;;;;;16.57;14.97;;;13.70;99.90;;;;;;5113204;27;20260;-80
2023/06/11 02:19:52;;;;;;;15.67;14.07;;;13.70;99.90;;;;;;5097750;28;20218;-78
2023/06/11 02:22:22;;;;;;;16.83;15.33;;;13.70;99.90;;;;;;5097703;28;20223;-76
2023/06/11 02:24:50;;;;;;;15.77;14.27;;;13.70;99.90;;;;;;5098450;28;20289;-80
2023/06/11 02:27:18;;;;;;;15.43;14.03;;;13.70;99.90;;;;;;5097984;28;20213;-81
2023/06/11 02:29:46;;;;;;;16.93;15.10;;;13.80;99.90;;;;;;5095250;28;20215;-80
2023/06/11 02:32:15;;;;;;;16.03;14.43;;;13.60;99.90;;;;;;5094680;28;20260;-80
2023/06/11 02:34:43;;;;;;;16.13;14.60;;;13.60;99.90;;;;;;5094725;28;20631;-81
2023/06/11 02:37:11;;;;;;;17.47;15.77;;;13.60;99.90;;;;;;5103905;28;20263;-78
2023/06/11 02:39:40;;;;;;;16.20;14.70;;;13.50;99.90;;;;;;5115237;28;20271;-80
2023/06/11 02:42:09;;;;;;;16.87;15.27;;;13.60;99.90;;;;;;5114834;28;20225;-79
2023/06/11 02:44:37;;;;;;;16.03;14.60;;;13.50;99.90;;;;;;5115200;28;20312;-78
2023/06/11 02:47:06;;;;;;;16.97;15.27;;;13.50;99.90;;;;;;5102383;28;20211;-80
2023/06/11 02:49:34;;;;;;;16.37;14.93;;;13.50;99.90;;;;;;5094677;28;20203;-78
2023/06/11 02:52:02;;;;;;;17.53;15.23;;;13.50;99.90;;;;;;5094342;28;20223;-80
2023/06/11 02:54:30;;;;;;;17.23;15.53;;;13.40;99.90;;;;;;5094977;28;20206;-80
2023/06/11 02:57:00;;;;;;;17.87;15.20;;;13.40;99.90;;;;;;5095018;28;20203;-78
2023/06/11 02:59:28;;;;;;;17.03;15.43;;;13.40;99.90;;;;;;5114803;28;20201;-79
2023/06/11 03:01:56;;;;;;;16.13;14.53;;;13.40;99.90;;;;;;5114541;28;20258;-80
2023/06/11 03:04:24;;;;;;;15.77;14.17;;;13.40;99.90;;;;;;5101923;28;20211;-78
2023/06/11 03:06:53;;;;;;;18.03;16.23;;;13.40;99.90;;;;;;5097141;28;20230;-82
2023/06/11 03:09:23;;;;;;;16.83;15.17;;;13.40;99.90;;;;;;5119031;28;20608;-81
2023/06/11 03:11:52;;;;;;;16.37;14.93;;;13.40;99.90;;;;;;5105004;28;20218;-78
2023/06/11 03:14:24;;;;;;;15.90;14.30;;;13.40;99.90;;;;;;5096163;28;20207;-79
2023/06/11 03:16:52;;;;;;;17.10;15.33;;;13.40;99.90;;;;;;5096281;28;20632;-76
2023/06/11 03:19:20;;;;;;;15.73;14.17;;;13.40;99.90;;;;;;5095635;28;20280;-78
2023/06/11 03:21:48;;;;;;;16.40;14.83;;;13.30;99.90;;;;;;5094325;28;20242;-78
2023/06/11 03:24:16;;;;;;;16.90;15.30;;;13.30;99.90;;;;;;5094610;28;20207;-77
2023/06/11 03:26:45;;;;;;;17.03;15.53;;;13.30;99.90;;;;;;5094295;28;20272;-79
2023/06/11 03:29:13;;;;;;;16.67;14.93;;;13.30;99.90;;;;;;5094343;28;20218;-78
2023/06/11 03:31:43;;;;;;;16.33;14.83;;;13.30;99.90;;;;;;5093549;28;20206;-80
2023/06/11 03:34:11;;;;;;;17.13;14.57;;;13.30;99.90;;;;;;5093951;28;20211;-80
2023/06/11 03:36:40;;;;;;;15.17;13.77;;;13.30;99.90;;;;;;5093793;28;20284;-79
2023/06/11 03:39:08;;;;;;;14.90;13.40;;;13.30;99.90;;;;;;5093678;28;20256;-79
2023/06/11 03:41:36;;;;;;;16.13;14.60;;;13.30;99.90;;;;;;5092114;28;20326;-80
2023/06/11 03:44:04;;;;;;;15.37;13.87;;;13.40;99.90;;;;;;5093333;28;20294;-79
2023/06/11 03:46:32;;;;;;;15.57;13.87;;;13.30;99.90;;;;;;5093355;28;20203;-80
2023/06/11 03:49:02;;;;;;;15.80;14.30;;;13.40;99.90;;;;;;5093527;28;20213;-80
2023/06/11 03:51:31;;;;;;;14.40;13.00;;;13.40;99.90;;;;;;5093453;28;20275;-79
2023/06/11 03:53:59;;;;;;;14.37;13.00;;;13.40;99.90;;;;;;5093041;28;20202;-78
2023/06/11 03:56:27;;;;;;;14.77;13.37;;;13.40;99.90;;;;;;5093326;28;20249;-80
2023/06/11 03:58:55;;;;;;;14.87;13.37;;;13.40;99.90;;;;;;5093446;28;20209;-80
2023/06/11 04:01:24;;;;;;;13.40;12.10;;;13.40;99.90;;;;;;5092863;28;20738;-80
2023/06/11 04:03:52;;;;;;;14.37;13.17;;;13.40;99.90;;;;;;5092366;28;20225;-80
2023/06/11 04:06:22;;;;;;;14.50;13.00;;;13.40;99.90;;;;;;5101178;28;20207;-79
2023/06/11 04:08:50;;;;;;;14.93;13.50;;;13.40;99.90;;;;;;5113493;28;20619;-79
2023/06/11 04:11:18;;;;;;;13.73;12.33;;;13.50;99.90;;;;;;5112972;28;20265;-79
2023/06/11 04:13:49;;;;;;;15.20;13.60;;;13.50;99.90;;;;;;5103028;27;20234;-79
2023/06/11 04:16:17;;;;;;;13.90;12.70;;;13.60;99.90;;;;;;5092662;28;20612;-80
2023/06/11 04:18:47;;;;;;;14.00;12.70;;;13.60;99.90;;;;;;5092667;28;20673;-80
2023/06/11 04:21:15;;;;;;;14.37;12.67;;;13.70;99.90;;;;;;5092294;28;20206;-80
2023/06/11 04:23:45;;;;;;;13.03;11.80;;;13.70;99.90;;;;;;5092467;28;20288;-80
2023/06/11 04:26:15;;;;;;;13.47;12.27;;;13.80;99.90;;;;;;5092550;28;20711;-79
2023/06/11 04:28:45;;;;;;;13.17;12.00;;;13.80;99.90;;;;;;5092814;28;20207;-80
2023/06/11 04:31:14;;;;;;;13.67;12.20;;;13.80;99.90;;;;;;5103657;28;20259;-81
2023/06/11 04:33:42;;;;;;;13.27;12.07;;;13.90;99.90;;;;;;5109496;28;20206;-79
2023/06/11 04:36:11;;;;;;;12.63;11.47;;;13.90;99.90;;;;;;5112179;28;20283;-79
2023/06/11 04:38:44;;;;;;;12.17;11.07;;;14.00;99.90;;;;;;5112407;28;20293;-78
2023/06/11 04:41:14;;;;;;;12.47;11.27;;;14.00;99.90;;;;;;5109614;28;20293;-78
2023/06/11 04:43:44;;;;;;;12.57;11.37;;;14.10;99.90;;;;;;5111815;28;20245;-79
2023/06/11 04:46:12;;;;;;;12.00;10.80;;;14.20;99.90;;;;;;5112449;28;20733;-79
2023/06/11 04:48:41;;;;;;;12.10;10.90;;;14.20;99.90;;;;;;5112701;28;20293;-79
2023/06/11 04:51:11;;;;;;;11.50;10.40;;;14.30;99.90;;;;;;5096373;28;20242;-80
2023/06/11 04:53:39;;;;;;;10.43;9.50;;;14.40;99.90;;;;;;5091691;28;20248;-80
2023/06/11 04:56:07;;;;;;;10.87;9.77;;;14.40;99.90;;;;;;5092325;28;20211;-79
2023/06/11 04:58:37;;;;;;;10.40;9.47;;;14.50;99.90;;;;;;5091990;28;20730;-79
2023/06/11 05:01:07;;;;;;;10.93;9.57;;;14.60;99.90;;;;;;5092595;28;20610;-78
2023/06/11 05:03:37;;;;;;;11.53;9.20;;;14.70;99.90;;;;;;5091700;28;20589;-81
2023/06/11 05:06:05;;;;;;;9.37;8.40;;;14.80;99.90;;;;;;5110405;28;20573;-81
2023/06/11 05:08:33;;;;;;;9.57;8.67;;;14.90;99.90;;;;;;5092033;28;20203;-79
2023/06/11 05:11:01;;;;;;;10.03;8.93;;;15.00;99.90;;;;;;5091841;28;20716;-80
2023/06/11 05:13:30;;;;;;;9.17;8.27;;;15.00;99.90;;;;;;5091731;28;20232;-80
2023/06/11 05:15:59;;;;;;;9.33;8.17;;;15.10;99.90;;;;;;5091611;28;20211;-78
2023/06/11 05:18:29;;;;;;;9.90;8.10;;;15.30;99.90;;;;;;5091408;28;20215;-79
2023/06/11 05:20:57;;;;;;;7.73;7.03;;;15.40;99.90;;;;;;5091515;28;20207;-80
2023/06/11 05:23:28;;;;;;;9.17;7.77;;;15.50;99.90;;;;;;5090881;28;20226;-80
2023/06/11 05:26:01;;;;;;;9.23;8.23;;;15.60;99.90;;;;;;5091703;28;20216;-81
2023/06/11 05:28:29;;;;;;;9.23;7.57;;;15.60;99.90;;;;;;5091927;28;20191;-79
2023/06/11 05:31:02;;;;;;;8.30;7.50;;;15.80;99.90;;;;;;5091547;28;20218;-79
2023/06/11 05:33:30;;;;;;;8.73;7.23;;;15.90;99.90;;;;;;5091510;28;20187;-79
2023/06/11 05:35:58;;;;;;;9.07;6.90;;;16.00;99.90;;;;;;5091734;28;20245;-80
2023/06/11 05:38:28;;;;;;;9.03;7.23;;;16.10;99.90;;;;;;5091854;28;20203;-79
2023/06/11 05:40:56;;;;;;;7.63;6.93;;;16.30;99.90;;;;;;5091699;28;20225;-78
2023/06/11 05:43:24;;;;;;;9.60;7.27;;;16.50;99.90;;;;;;5091408;28;20314;-78
2023/06/11 05:45:53;;;;;;;8.87;6.63;;;16.70;99.90;;;;;;5091787;28;20207;-78
2023/06/11 05:48:22;;;;;;;8.20;6.93;;;17.00;99.90;;;;;;5091426;28;20207;-79
2023/06/11 05:50:51;;;;;;;8.10;5.77;;;17.40;99.90;;;;;;5091756;28;20206;-77
2023/06/11 05:53:19;;;;;;;6.73;5.57;;;18.30;99.90;;;;;;5091406;28;20207;-79
2023/06/11 05:55:47;;;;;;;7.73;5.67;;;19.70;99.90;;;;;;5092082;28;20203;-78
2023/06/11 05:58:16;;;;;;;5.60;4.93;;;21.10;99.90;;;;;;5091307;28;20243;-79
2023/06/11 06:00:44;;;;;;;6.13;5.00;;;22.60;99.90;;;;;;5096420;28;20209;-78
2023/06/11 06:03:12;;;;;;;5.63;4.80;;;24.00;99.90;;;;;;5106052;28;20268;-78
2023/06/11 06:05:42;;;;;;;5.93;4.77;;;24.90;99.90;;;;;;5094395;28;20213;-79
2023/06/11 06:08:11;;;;;;;7.47;4.80;;;25.60;98.10;;;;;;5095364;28;20211;-77
2023/06/11 06:10:39;;;;;;;7.93;4.63;;;26.10;95.90;;;;;;5094939;28;20321;-79
2023/06/11 06:13:07;;;;;;;5.00;4.50;;;25.40;94.60;;;;;;5094777;28;20656;-76
2023/06/11 06:15:35;;;;;;;5.60;4.40;;;24.90;93.60;;;;;;5095384;28;20277;-77
2023/06/11 06:18:04;;;;;;;4.50;4.10;;;25.10;95.10;;;;;;5095286;28;20263;-77
2023/06/11 06:20:32;;;;;;;4.65;4.03;;;25.50;93.70;;;;;;5095266;28;20242;-77
2023/06/11 06:23:02;;;;;;;4.35;3.83;;;25.40;93.30;;;;;;5094413;28;20238;-76
2023/06/11 06:25:31;;;;;;;5.45;3.97;;;25.90;92.30;;;;;;5095005;28;20668;-76
2023/06/11 06:27:59;;;;;;;4.93;4.00;;;26.70;91.70;;;;;;5094993;28;20210;-78
2023/06/11 06:30:27;;;;;;;5.95;3.78;;;26.40;90.90;;;;;;5094292;28;20210;-78
2023/06/11 06:32:56;;;;;;;6.05;4.00;;;27.30;87.30;;;;;;5094534;28;20257;-76
2023/06/11 06:35:25;;;;;;;8.98;3.88;;;27.10;84.20;;;;;;5094954;28;20210;-76
2023/06/11 06:37:53;;;;;;;5.05;4.03;;;27.20;79.60;;;;;;5094766;28;20773;-76
2023/06/11 06:40:24;;;;;;;5.28;4.13;;;26.60;80.10;;;;;;5095168;28;20207;-78
2023/06/11 06:42:52;;;;;;;4.00;3.60;;;26.70;84.10;;;;;;5094086;28;20213;-80
2023/06/11 06:45:20;;;;;;;4.18;3.38;;;26.00;81.60;;;;;;5094447;28;20683;-78
2023/06/11 06:47:49;;;;;;;4.35;3.40;;;26.70;82.50;;;;;;5094617;28;20234;-79
2023/06/11 06:50:17;;;;;;;4.68;3.80;;;27.60;77.80;;;;;;5094646;28;20207;-77
2023/06/11 06:52:45;;;;;;;8.85;3.60;;;27.70;75.80;;;;;;5094301;28;20253;-77
2023/06/11 06:55:13;;;;;;;3.83;3.38;;;27.90;75.00;;;;;;5093160;28;20302;-75
2023/06/11 06:57:42;;;;;;;4.45;3.45;;;28.30;75.20;;;;;;5094654;28;20291;-77
2023/06/11 07:00:12;;;;;;;4.05;3.53;;;28.80;68.60;;;;;;5094516;28;20244;-78
2023/06/11 07:02:40;;;;;;;5.05;3.42;;;28.50;67.90;;;;;;5097525;28;20238;-76
2023/06/11 07:05:10;;;;;;;3.90;3.50;;;28.80;66.90;;;;;;5094284;28;20227;-76
2023/06/11 07:07:38;;;;;;;3.72;3.40;;;27.80;69.60;;;;;;5094388;28;20207;-76
2023/06/11 07:10:10;;;;;;;4.00;3.60;;;28.60;71.60;;;;;;5094099;28;20244;-76
2023/06/11 07:12:39;;;;;;;3.95;3.60;;;28.70;64.70;;;;;;5093727;28;20226;-77
2023/06/11 07:15:10;;;;;;;4.43;3.47;;;28.40;65.00;;;;;;5093881;28;20207;-77
2023/06/11 07:17:38;;;;;;;5.18;3.67;;;27.90;68.30;;;;;;5094037;28;20617;-76
2023/06/11 07:20:08;;;;;;;4.03;3.08;;;28.80;64.90;;;;;;5092896;28;20289;-77
2023/06/11 07:22:37;;;;;;;5.43;3.40;;;29.90;63.70;;;;;;5093522;28;20730;-78
2023/06/11 07:25:06;;;;;;;4.55;3.40;;;30.40;59.80;;;;;;5093612;28;20227;-79
2023/06/11 07:27:34;;;;;;;4.45;3.08;;;30.20;59.10;;;;;;5093703;28;20668;-78
2023/06/11 07:30:03;;;;;;;10.00;3.20;;;29.90;58.80;;;;;;5093551;28;20600;-78
2023/06/11 07:32:32;;;;;;;3.72;2.90;;;30.40;55.70;;;;;;5093791;28;20207;-79
2023/06/11 07:35:00;;;;;;;3.42;2.97;;;30.40;55.80;;;;;;5093828;28;20246;-78
2023/06/11 07:37:28;;;;;;;3.42;3.10;;;29.70;57.00;;;;;;5093754;28;20629;-78
2023/06/11 07:39:57;;;;;;;3.40;3.10;;;30.10;59.40;;;;;;5093970;28;20203;-77
2023/06/11 07:42:25;;;;;;;3.38;3.08;;;30.90;55.10;;;;;;5093480;28;20198;-77
2023/06/11 07:44:53;;;;;;;4.07;3.10;;;30.90;55.90;;;;;;5093267;28;20227;-78
2023/06/11 07:47:21;;;;;;;3.38;3.08;;;31.70;52.80;;;;;;5093599;28;20206;-75
2023/06/11 07:49:50;;;;;;;3.38;3.08;;;31.00;53.40;;;;;;5093769;28;20210;-78
2023/06/11 07:52:18;;;;;;;4.03;2.90;;;30.90;54.00;;;;;;5093890;28;20214;-77
2023/06/11 07:54:46;;;;;;;3.45;3.15;;;31.30;54.80;;;;;;5093585;28;20199;-75
2023/06/11 07:57:15;;;;;;;3.55;3.00;;;30.60;53.40;;;;;;5093449;28;20211;-75
2023/06/11 07:59:43;;;;;;;4.72;3.40;;;31.30;51.70;;;;;;5093762;28;20538;-76
2023/06/11 08:02:11;;;;;;;5.65;3.53;;;31.80;51.00;;;;;;5110878;28;20263;-76
2023/06/11 08:04:40;;;;;;;4.80;3.38;;;31.80;50.20;;;;;;5113763;28;20237;-77
2023/06/11 08:07:10;;;;;;;3.50;3.20;;;31.60;49.60;;;;;;5113423;28;20246;-77
2023/06/11 08:09:38;;;;;;;4.60;3.03;;;31.80;51.60;;;;;;5094750;28;20232;-78
2023/06/11 08:12:08;;;;;;;3.15;2.88;;;31.80;48.90;;;;;;5092876;28;20195;-77
2023/06/11 08:14:37;;;;;;;4.35;3.03;;;32.10;48.20;;;;;;5092500;28;20623;-77
2023/06/11 08:17:05;;;;;;;5.60;3.08;;;32.00;49.40;;;;;;5104851;28;20293;-76
2023/06/11 08:19:33;;;;;;;4.43;3.00;;;33.00;45.90;;;;;;5113117;28;20577;-75
2023/06/11 08:22:02;;;;;;;3.35;2.80;;;32.80;45.00;;;;;;5112647;28;20202;-76
2023/06/11 08:24:32;;;;;;;2.78;2.58;;;33.10;44.20;;;;;;5108350;28;20251;-77
2023/06/11 08:27:01;;;;;;;3.58;2.65;;;31.80;44.20;;;;;;5092196;28;20633;-75
2023/06/11 08:29:29;;;;;;;3.10;2.78;;;32.20;45.20;;;;;;5092680;28;20211;-77
2023/06/11 08:31:57;;;;;;;3.20;3.00;;;32.10;46.30;;;;;;5093241;28;20202;-77
2023/06/11 08:34:25;;;;;;;3.42;2.58;;;32.60;46.20;;;;;;5094389;28;20202;-79
2023/06/11 08:36:54;;;;;;;4.45;2.50;;;33.30;41.70;;;;;;5096055;28;20207;-76
2023/06/11 08:39:23;;;;;;;5.15;2.58;;;33.60;42.40;;;;;;5095917;28;20210;-78
2023/06/11 08:41:52;;;;;;;3.33;2.70;;;33.40;42.00;;;;;;5094875;28;20221;-77
2023/06/11 08:44:21;;;;;;;3.10;2.70;;;33.60;41.80;;;;;;5093693;28;20276;-76
2023/06/11 08:46:56;;;;;;;3.28;2.40;;;32.50;42.40;;;;;;5094803;28;20191;-78
2023/06/11 08:49:24;;;;;;;2.88;2.58;;;31.40;40.80;;;;;;5094215;28;20209;-78
2023/06/11 08:51:54;;;;;;;4.38;2.50;;;31.60;42.10;;;;;;5108398;28;20705;-78
2023/06/11 08:54:22;;;;;;;4.18;2.97;;;32.10;43.00;;;;;;5112704;28;20576;-75
2023/06/11 08:56:52;;;;;;;5.18;2.95;;;31.10;43.30;;;;;;5112583;28;20251;-76
2023/06/11 08:59:20;;;;;;;3.45;2.80;;;30.90;42.30;;;;;;5102436;28;20267;-76
2023/06/11 09:01:50;;;;;;;3.20;2.78;;;30.00;44.60;;;;;;5114836;28;20217;-78
2023/06/11 09:04:19;;;;;;;3.13;2.83;;;29.50;44.90;;;;;;5098551;28;20314;-77
2023/06/11 09:06:51;;;;;;;3.20;2.90;;;29.00;45.50;;;;;;5098420;28;20590;-77
2023/06/11 09:09:19;;;;;;;5.43;2.80;;;29.20;46.60;;;;;;5099873;28;20255;-76
2023/06/11 09:11:47;;;;;;;3.50;2.60;;;28.30;47.30;;;;;;5096184;28;20231;-77
2023/06/11 09:14:17;;;;;;;3.47;2.65;;;27.90;48.60;;;;;;5104833;28;20206;-75
2023/06/11 09:16:46;;;;;;;4.40;2.53;;;27.10;49.30;;;;;;5113964;28;20216;-77
2023/06/11 09:19:16;;;;;;;3.10;2.80;;;26.90;51.20;;;;;;5110936;28;20586;-78
2023/06/11 09:21:51;;;;;;;2.40;2.20;;;27.80;53.10;;;;;;5111050;28;20653;-76
2023/06/11 09:24:20;;;;;;;3.35;2.88;;;27.50;52.10;;;;;;5110295;28;20190;-77
2023/06/11 09:26:54;;;;;;;2.80;2.60;;;27.20;49.50;;;;;;5110185;28;20229;-76
2023/06/11 09:29:24;;;;;;;5.90;2.97;;;27.50;50.90;;;;;;5104539;28;20230;-77
2023/06/11 09:32:02;;;;;;;3.40;2.63;;;28.30;51.20;;;;;;5089735;28;20234;-75
2023/06/11 09:34:40;;;;;;;3.45;3.03;;;28.50;48.80;;;;;;5089944;28;20301;-78
2023/06/11 09:37:10;;;;;;;3.40;2.97;;;29.10;47.70;;;;;;5089781;28;20685;-77
2023/06/11 09:39:41;;;;;;;3.05;2.72;;;28.10;50.80;;;;;;5093283;28;20202;-74
2023/06/11 09:42:13;;;;;;;8.90;2.90;;;29.30;52.00;;;;;;5094875;28;20627;-77
2023/06/11 09:44:47;;;;;;;3.83;2.80;;;30.20;47.10;;;;;;5095450;28;20633;-78
2023/06/11 09:47:16;;;;;;;2.88;2.60;;;30.70;46.20;;;;;;5095713;28;20198;-76
2023/06/11 09:49:45;;;;;;;4.00;2.80;;;31.10;45.90;;;;;;5095985;28;20206;-76
2023/06/11 09:52:15;;;;;;;3.22;2.92;;;30.70;46.50;;;;;;5095725;28;20214;-77
2023/06/11 09:54:46;;;;;;;3.10;2.80;;;29.40;47.20;;;;;;5095441;28;20344;-78
2023/06/11 09:57:16;;;;;;;4.25;3.05;;;28.60;49.10;;;;;;5098087;28;20195;-77
2023/06/11 09:59:46;;;;;;;3.88;2.75;;;29.10;49.00;;;;;;5116197;28;20256;-78
2023/06/11 10:02:15;;;;;;;4.75;2.97;;;28.00;49.40;;;;;;5114624;28;20206;-76
2023/06/11 10:04:43;;;;;;;3.55;2.97;;;27.30;50.60;;;;;;5095574;28;20651;-77
2023/06/11 10:07:12;;;;;;;2.95;2.63;;;27.80;52.20;;;;;;5095495;28;20215;-77
2023/06/11 10:09:43;;;;;;;3.50;2.85;;;28.90;52.00;;;;;;5095282;28;20210;-77
2023/06/11 10:12:11;;;;;;;2.83;2.63;;;29.70;49.40;;;;;;5094589;28;20207;-75
2023/06/11 10:14:51;;;;;;;3.55;2.95;;;30.30;49.00;;;;;;5095413;28;20222;-75
2023/06/11 10:17:21;;;;;;;2.95;2.67;;;31.00;46.10;;;;;;5095049;28;20211;-77
2023/06/11 10:19:51;;;;;;;2.70;2.50;;;30.80;44.40;;;;;;5100514;28;20572;-76
2023/06/11 10:22:22;;;;;;;2.80;2.60;;;30.90;46.10;;;;;;5115380;28;20708;-75
2023/06/11 10:25:00;;;;;;;3.60;2.90;;;30.80;44.00;;;;;;5115442;28;20251;-77
2023/06/11 10:27:37;;;;;;;5.15;3.00;;;29.80;44.70;;;;;;5110120;27;20290;-77
2023/06/11 10:30:08;;;;;;;4.05;2.75;;;30.10;45.50;;;;;;5094898;28;20206;-77
2023/06/11 10:32:49;;;;;;;3.35;2.80;;;30.80;42.90;;;;;;5094662;28;20604;-76
2023/06/11 10:35:23;;;;;;;3.50;2.90;;;30.50;43.60;;;;;;5095345;28;20210;-76
2023/06/11 10:38:03;;;;;;;2.95;2.60;;;30.80;43.50;;;;;;5094798;28;20679;-77
2023/06/11 10:40:35;;;;;;;3.65;2.63;;;31.70;42.00;;;;;;5094947;28;20203;-77
2023/06/11 10:43:05;;;;;;;5.57;2.70;;;32.10;42.20;;;;;;5094390;28;20268;-75
2023/06/11 10:45:38;;;;;;;3.13;2.72;;;31.50;40.70;;;;;;5094328;28;20215;-76
2023/06/11 10:48:07;;;;;;;5.22;2.65;;;31.40;41.10;;;;;;5094798;28;20226;-77
2023/06/11 10:50:36;;;;;;;3.63;2.53;;;31.80;42.30;;;;;;5093936;28;20215;-77
2023/06/11 10:53:11;;;;;;;2.67;2.47;;;31.70;41.40;;;;;;5094692;28;20207;-77
2023/06/11 10:55:44;;;;;;;2.65;2.40;;;30.40;42.10;;;;;;5115143;28;20202;-79
2023/06/11 10:58:22;;;;;;;3.55;2.80;;;30.50;42.60;;;;;;5114708;28;20232;-76
2023/06/11 11:00:54;;;;;;;3.05;2.75;;;30.70;41.90;;;;;;5115668;28;20232;-78
2023/06/11 11:03:23;;;;;;;3.17;2.88;;;31.20;40.80;;;;;;5101991;28;20682;-75
2023/06/11 11:05:53;;;;;;;3.65;2.60;;;31.10;40.40;;;;;;5094851;28;20222;-76
2023/06/11 11:08:21;;;;;;;2.60;2.40;;;31.40;41.00;;;;;;5095355;28;20302;-78
2023/06/11 11:10:56;;;;;;;2.67;2.40;;;30.90;40.70;;;;;;5094142;28;20238;-78
2023/06/11 11:13:25;;;;;;;2.90;2.60;;;31.00;40.90;;;;;;5094286;28;20252;-78
2023/06/11 11:15:54;;;;;;;2.60;2.40;;;30.70;42.50;;;;;;5094163;28;20199;-75
2023/06/11 11:18:23;;;;;;;3.45;2.65;;;30.30;44.60;;;;;;5093495;28;20206;-75
2023/06/11 11:20:53;;;;;;;3.50;2.55;;;30.80;43.80;;;;;;5093980;28;20211;-75
2023/06/11 11:23:24;;;;;;;4.07;2.70;;;31.00;44.60;;;;;;5093895;28;20215;-75
2023/06/11 11:25:52;;;;;;;2.92;2.63;;;31.20;41.20;;;;;;5094076;28;20233;-75
2023/06/11 11:28:21;;;;;;;3.28;2.70;;;31.50;41.90;;;;;;5094120;28;20211;-77
2023/06/11 11:30:52;;;;;;;2.88;2.63;;;31.10;41.90;;;;;;5093674;28;20207;-78
2023/06/11 11:33:21;;;;;;;3.03;2.60;;;31.40;40.40;;;;;;5093775;28;20195;-76
2023/06/11 11:35:53;;;;;;;2.63;2.42;;;30.60;38.90;;;;;;5097441;28;20720;-76
2023/06/11 11:38:22;;;;;;;2.97;2.67;;;30.20;41.10;;;;;;5117743;28;20237;-78
2023/06/11 11:40:56;;;;;;;2.78;2.53;;;29.10;40.50;;;;;;5116654;28;20628;-76
2023/06/11 11:43:25;;;;;;;5.82;2.70;;;28.70;41.70;;;;;;5114465;28;20205;-74
2023/06/11 11:45:54;;;;;;;3.70;2.60;;;28.30;43.00;;;;;;5116099;28;20594;-77
2023/06/11 11:48:26;;;;;;;2.95;2.65;;;28.20;43.90;;;;;;5115296;28;20210;-75
2023/06/11 11:51:05;;;;;;;4.32;2.85;;;28.50;45.00;;;;;;5115672;28;20209;-75
2023/06/11 11:53:34;;;;;;;4.13;2.92;;;27.60;43.30;;;;;;5106203;28;20564;-78
2023/06/11 11:56:04;;;;;;;4.07;2.60;;;27.60;43.30;;;;;;5109931;28;20218;-78
2023/06/11 11:58:38;;;;;;;3.77;2.73;;;27.80;46.00;;;;;;5113929;28;20244;-76
2023/06/11 12:01:08;;;;;;;2.97;2.67;;;27.60;43.30;;;;;;5107230;28;20260;-77
2023/06/11 12:03:38;;;;;;;4.00;3.10;;;27.20;44.40;;;;;;5092158;28;20211;-78
2023/06/11 12:06:07;;;;;;;5.20;3.10;;;27.30;46.00;;;;;;5093612;28;20227;-77
2023/06/11 12:08:37;;;;;;;3.40;3.10;;;27.50;46.30;;;;;;5093520;28;20214;-76
2023/06/11 12:11:06;;;;;;;5.23;3.00;;;26.60;43.10;;;;;;5108153;28;20294;-76
2023/06/11 12:13:35;;;;;;;4.13;2.93;;;26.00;42.60;;;;;;5113402;28;20277;-77
2023/06/11 12:16:04;;;;;;;5.63;3.00;;;25.90;44.00;;;;;;5113744;28;20560;-77
2023/06/11 12:18:33;;;;;;;3.30;3.00;;;26.20;43.90;;;;;;5098775;28;20229;-78
2023/06/11 12:21:02;;;;;;;4.70;3.07;;;25.60;43.90;;;;;;5093181;28;20219;-78
2023/06/11 12:23:31;;;;;;;3.70;2.90;;;25.50;44.40;;;;;;5092927;28;20624;-78
2023/06/11 12:26:00;;;;;;;3.93;2.90;;;25.70;44.30;;;;;;5092547;28;20207;-78
2023/06/11 12:28:28;;;;;;;5.30;3.00;;;25.80;44.40;;;;;;5092849;28;20215;-78
2023/06/11 12:30:56;;;;;;;3.27;2.73;;;26.10;43.60;;;;;;5092989;28;20297;-76
2023/06/11 12:33:25;;;;;;;4.60;2.73;;;26.60;44.40;;;;;;5092672;28;20207;-79
2023/06/11 12:35:53;;;;;;;5.17;2.97;;;26.70;44.40;;;;;;5092982;28;20203;-77
2023/06/11 12:38:22;;;;;;;3.97;2.97;;;27.00;46.30;;;;;;5093901;28;20268;-74
2023/06/11 12:40:50;;;;;;;4.43;3.00;;;26.50;41.60;;;;;;5094640;28;20232;-77
2023/06/11 12:43:19;;;;;;;3.20;2.83;;;26.60;41.60;;;;;;5093092;28;20268;-76
2023/06/11 12:45:47;;;;;;;3.83;2.77;;;26.30;43.60;;;;;;5102475;28;20213;-78
2023/06/11 12:48:15;;;;;;;4.30;2.83;;;26.20;39.80;;;;;;5115055;28;20225;-78
2023/06/11 12:50:45;;;;;;;3.00;2.70;;;26.50;39.90;;;;;;5120594;28;20206;-78